Time;durP1;ratioP1;P1;durP2;ratioP2;P2;SDS_P1;SDS_P2;PMS_P1;PMS_P2;Temp;Humidity;BMP_temperature;BMP_pressure;BME280_temperature;BME280_humidity;BME280_pressure;Samples;Min_cycle;Max_cycle;Signal;HPM_P1;HPM_P2
2021/05/01 00:01:48;;;;;;;11.67;10.77;;;;;;;9.66;100.00;100726.25;5025951;28;20812;-75
2021/05/01 00:04:14;;;;;;;12.53;11.33;;;;;;;9.60;100.00;100725.41;5035198;28;20215;-75
2021/05/01 00:06:41;;;;;;;12.33;11.23;;;;;;;9.57;100.00;100731.34;5031194;28;20220;-74
2021/05/01 00:09:07;;;;;;;12.27;11.17;;;;;;;9.57;100.00;100720.50;5015263;28;20654;-74
2021/05/01 00:11:33;;;;;;;12.57;11.27;;;;;;;9.57;100.00;100725.94;5005426;28;20230;-75
2021/05/01 00:13:58;;;;;;;12.57;11.37;;;;;;;9.60;100.00;100720.00;5030546;28;20187;-74
2021/05/01 00:16:27;;;;;;;12.27;11.20;;;;;;;9.57;100.00;100714.28;5017612;28;20614;-74
2021/05/01 00:18:53;;;;;;;12.30;11.30;;;;;;;9.57;100.00;100718.88;5018516;28;20227;-75
2021/05/01 00:21:19;;;;;;;12.77;11.47;;;;;;;9.55;100.00;100712.91;5007694;28;20232;-75
2021/05/01 00:23:47;;;;;;;12.83;11.70;;;;;;;9.50;100.00;100715.59;5047096;28;20184;-76
2021/05/01 00:26:15;;;;;;;13.37;12.10;;;;;;;9.50;100.00;100713.69;5007359;28;20795;-74
2021/05/01 00:28:40;;;;;;;13.63;12.27;;;;;;;9.49;100.00;100706.66;5018408;28;20188;-74
2021/05/01 00:31:06;;;;;;;13.17;12.00;;;;;;;9.50;100.00;100707.47;5025192;28;20705;-74
2021/05/01 00:33:32;;;;;;;13.90;12.63;;;;;;;9.44;100.00;100709.31;5013694;28;20230;-75
2021/05/01 00:36:00;;;;;;;13.53;12.40;;;;;;;9.45;100.00;100712.84;5021806;28;20228;-75
2021/05/01 00:38:26;;;;;;;13.80;12.60;;;;;;;9.50;100.00;100704.75;5017933;28;20186;-74
2021/05/01 00:40:53;;;;;;;14.37;13.07;;;;;;;9.46;100.00;100709.06;5017418;28;20216;-75
2021/05/01 00:43:19;;;;;;;14.07;12.77;;;;;;;9.40;100.00;100697.38;5033645;28;20183;-75
2021/05/01 00:45:45;;;;;;;14.50;13.20;;;;;;;9.42;100.00;100699.84;5000610;28;20766;-75
2021/05/01 00:48:10;;;;;;;13.73;12.50;;;;;;;9.41;100.00;100687.34;5034078;28;20176;-76
2021/05/01 00:50:36;;;;;;;13.83;12.53;;;;;;;9.35;100.00;100691.13;5030148;28;20216;-75
2021/05/01 00:53:03;;;;;;;14.30;12.97;;;;;;;9.45;100.00;100693.88;5013485;28;20708;-75
2021/05/01 00:55:33;;;;;;;14.43;13.17;;;;;;;9.46;100.00;100690.91;5001882;28;20226;-74
2021/05/01 00:57:59;;;;;;;13.77;12.47;;;;;;;9.39;100.00;100689.50;5001524;28;20195;-73
2021/05/01 01:02:57;;;;;;;15.03;13.53;;;;;;;9.37;100.00;100687.06;5020634;28;20274;-74
2021/05/01 01:05:24;;;;;;;14.57;13.27;;;;;;;9.38;100.00;100682.47;5006054;28;20300;-74
2021/05/01 01:07:51;;;;;;;14.73;13.43;;;;;;;9.45;100.00;100683.03;5016875;28;20655;-74
2021/05/01 01:10:19;;;;;;;14.77;13.37;;;;;;;9.51;100.00;100679.28;5001329;28;20191;-75
2021/05/01 01:12:45;;;;;;;15.47;14.00;;;;;;;9.43;100.00;100677.06;5049476;28;20191;-75
2021/05/01 01:15:26;;;;;;;15.10;13.70;;;;;;;9.39;100.00;100679.47;5049463;28;20674;-74
2021/05/01 01:17:54;;;;;;;15.43;13.93;;;;;;;9.42;100.00;100670.81;5033815;28;20192;-75
2021/05/01 01:20:23;;;;;;;15.77;14.27;;;;;;;9.37;100.00;100675.41;5033334;28;20199;-75
2021/05/01 01:22:51;;;;;;;15.50;14.00;;;;;;;9.38;100.00;100671.63;5048791;28;20176;-75
2021/05/01 01:25:17;;;;;;;15.33;13.97;;;;;;;9.37;100.00;100680.84;5032252;28;20231;-74
2021/05/01 01:27:45;;;;;;;15.20;13.80;;;;;;;9.44;100.00;100670.56;5043679;28;20180;-74
2021/05/01 01:30:12;;;;;;;15.53;14.10;;;;;;;9.38;100.00;100677.88;5029464;28;20856;-75
2021/05/01 01:32:38;;;;;;;15.60;14.00;;;;;;;9.20;100.00;100679.41;5029388;28;20194;-75
2021/05/01 01:35:07;;;;;;;16.07;14.53;;;;;;;9.26;100.00;100679.94;5035796;28;20200;-75
2021/05/01 01:37:33;;;;;;;14.90;13.57;;;;;;;9.32;100.00;100672.66;5017213;28;20267;-75
2021/05/01 01:40:03;;;;;;;16.00;14.60;;;;;;;9.31;100.00;100681.88;5005884;28;20196;-75
2021/05/01 01:42:31;;;;;;;15.20;13.80;;;;;;;9.25;100.00;100680.25;4995742;28;20251;-75
2021/05/01 01:44:59;;;;;;;16.03;14.53;;;;;;;9.24;100.00;100681.31;4981166;28;20266;-75
2021/05/01 01:47:27;;;;;;;15.53;14.03;;;;;;;9.21;100.00;100676.41;5000259;28;20677;-74
2021/05/01 01:49:53;;;;;;;15.47;14.00;;;;;;;9.22;100.00;100678.03;5016552;28;20238;-75
2021/05/01 01:52:18;;;;;;;16.27;14.43;;;;;;;9.19;100.00;100683.97;4998890;28;20227;-74
2021/05/01 01:54:44;;;;;;;15.43;13.83;;;;;;;9.23;100.00;100682.41;5000274;28;20200;-74
2021/05/01 01:57:12;;;;;;;14.00;12.70;;;;;;;9.19;100.00;100686.69;5032323;28;20224;-73
2021/05/01 01:59:40;;;;;;;14.23;12.93;;;;;;;9.20;100.00;100674.78;5012503;28;20246;-74
2021/05/01 02:02:05;;;;;;;14.70;13.40;;;;;;;9.21;100.00;100677.25;5015785;28;20252;-75
2021/05/01 02:04:33;;;;;;;16.10;14.60;;;;;;;9.17;100.00;100677.19;5029307;28;20224;-73
2021/05/01 02:06:58;;;;;;;15.10;13.63;;;;;;;9.17;100.00;100678.00;5016661;28;20314;-72
2021/05/01 02:09:27;;;;;;;15.43;13.83;;;;;;;9.20;100.00;100673.97;4996459;28;20195;-72
2021/05/01 02:11:53;;;;;;;14.90;13.50;;;;;;;9.19;100.00;100678.56;5013194;28;20336;-73
2021/05/01 02:14:23;;;;;;;15.60;13.93;;;;;;;9.15;100.00;100677.47;4992869;28;20181;-73
2021/05/01 02:16:48;;;;;;;14.40;13.10;;;;;;;9.13;100.00;100674.19;5006906;28;20243;-73
2021/05/01 02:19:14;;;;;;;15.60;14.03;;;;;;;9.12;100.00;100677.16;5041008;28;20192;-73
2021/05/01 02:21:44;;;;;;;15.60;14.03;;;;;;;9.08;100.00;100676.88;5014790;28;20238;-73
2021/05/01 02:24:12;;;;;;;14.97;13.53;;;;;;;9.10;100.00;100674.75;5032326;28;20183;-73
2021/05/01 02:26:40;;;;;;;15.70;14.20;;;;;;;9.06;100.00;100668.19;5031862;28;20230;-73
2021/05/01 02:29:08;;;;;;;15.40;13.93;;;;;;;9.06;100.00;100670.09;5050295;28;20192;-73
2021/05/01 02:31:36;;;;;;;15.10;13.57;;;;;;;8.96;100.00;100662.72;5031384;28;20298;-73
2021/05/01 02:34:05;;;;;;;15.43;13.90;;;;;;;9.06;100.00;100667.38;4999589;28;20176;-73
2021/05/01 02:36:30;;;;;;;15.00;13.60;;;;;;;9.10;100.00;100669.31;5023071;28;20931;-74
2021/05/01 02:38:56;;;;;;;14.77;13.37;;;;;;;9.05;100.00;100661.16;5029421;28;20189;-73
2021/05/01 02:41:26;;;;;;;14.73;13.30;;;;;;;8.94;100.00;100667.59;5022862;28;20617;-73
2021/05/01 02:43:54;;;;;;;14.30;12.90;;;;;;;9.02;100.00;100666.28;4999842;28;20181;-74
2021/05/01 02:46:19;;;;;;;14.50;13.13;;;;;;;8.97;100.00;100669.78;5033394;28;20654;-73
2021/05/01 02:48:46;;;;;;;14.20;12.90;;;;;;;9.00;100.00;100663.00;5036371;28;20184;-73
2021/05/01 02:51:11;;;;;;;13.67;12.47;;;;;;;8.91;100.00;100659.16;5018848;28;20277;-72
2021/05/01 02:53:41;;;;;;;14.53;12.60;;;;;;;8.81;100.00;100647.44;5052941;28;20547;-73
2021/05/01 02:56:07;;;;;;;13.33;12.03;;;;;;;8.61;100.00;100644.63;5026932;28;20271;-73
2021/05/01 02:58:32;;;;;;;12.27;11.17;;;;;;;8.73;100.00;100645.22;5049164;28;20192;-73
2021/05/01 03:01:00;;;;;;;13.50;12.20;;;;;;;8.71;100.00;100647.38;5006698;28;20226;-73
2021/05/01 03:03:26;;;;;;;12.57;11.37;;;;;;;8.78;100.00;100634.44;5017677;28;20184;-73
2021/05/01 03:05:54;;;;;;;12.70;11.43;;;;;;;8.72;100.00;100633.59;5032855;28;20610;-72
2021/05/01 03:08:21;;;;;;;12.13;11.03;;;;;;;8.77;100.00;100632.78;5032070;28;20191;-73
2021/05/01 03:10:47;;;;;;;12.77;11.50;;;;;;;8.78;100.00;100631.72;5026302;28;20224;-73
2021/05/01 03:13:12;;;;;;;11.23;10.13;;;;;;;8.77;100.00;100630.91;5011530;28;20192;-74
2021/05/01 03:15:41;;;;;;;12.37;11.27;;;;;;;8.76;100.00;100623.06;4984280;28;20653;-73
2021/05/01 03:18:11;;;;;;;11.03;10.03;;;;;;;8.77;100.00;100616.53;5032257;28;20280;-73
2021/05/01 03:20:37;;;;;;;11.23;10.03;;;;;;;8.76;100.00;100617.66;4999032;28;20226;-73
2021/05/01 03:23:07;;;;;;;11.00;9.90;;;;;;;8.78;100.00;100620.91;5014898;28;20553;-73
2021/05/01 03:25:33;;;;;;;11.30;10.20;;;;;;;8.71;100.00;100620.31;5031468;28;20231;-72
2021/05/01 03:27:59;;;;;;;11.20;10.20;;;;;;;8.74;100.00;100622.50;4998770;28;20184;-73
2021/05/01 03:30:24;;;;;;;11.00;9.80;;;;;;;8.69;100.00;100617.84;5017408;28;20188;-75
2021/05/01 03:32:50;;;;;;;10.77;9.77;;;;;;;8.75;100.00;100616.00;5051302;28;20194;-74
2021/05/01 03:35:21;;;;;;;11.90;10.70;;;;;;;8.78;100.00;100612.78;5022973;28;20207;-73
2021/05/01 03:37:50;;;;;;;11.47;10.37;;;;;;;8.78;100.00;100615.47;5036263;28;20668;-72
2021/05/01 03:40:16;;;;;;;11.10;10.07;;;;;;;8.74;100.00;100608.97;5019178;28;20187;-73
2021/05/01 03:42:44;;;;;;;12.27;10.80;;;;;;;8.77;100.00;100613.84;5014737;28;20181;-74
2021/05/01 03:45:15;;;;;;;11.20;10.20;;;;;;;8.76;100.00;100614.94;5014807;28;20216;-73
2021/05/01 03:47:43;;;;;;;11.27;10.23;;;;;;;8.71;100.00;100609.47;5031977;28;20192;-73
2021/05/01 03:50:09;;;;;;;10.63;9.60;;;;;;;8.59;100.00;100606.97;5031968;28;20190;-73
2021/05/01 03:52:35;;;;;;;10.97;9.97;;;;;;;8.68;100.00;100610.00;5035391;28;20188;-74
2021/05/01 03:55:04;;;;;;;10.83;9.83;;;;;;;8.73;100.00;100620.84;5035499;28;20202;-73
2021/05/01 03:57:32;;;;;;;10.87;9.87;;;;;;;8.66;100.00;100612.13;5004454;28;20211;-72
2021/05/01 03:59:57;;;;;;;10.70;9.63;;;;;;;8.64;100.00;100615.09;5052386;28;20673;-73
2021/05/01 04:02:23;;;;;;;10.40;9.40;;;;;;;8.49;100.00;100616.91;4999224;28;20293;-73
2021/05/01 04:04:54;;;;;;;12.30;10.30;;;;;;;8.55;100.00;100616.69;5032244;28;20228;-73
2021/05/01 04:07:20;;;;;;;10.23;9.13;;;;;;;8.56;100.00;100612.91;5021601;28;20224;-73
2021/05/01 04:09:45;;;;;;;10.70;9.60;;;;;;;8.62;100.00;100624.56;5041960;28;20214;-73
2021/05/01 04:12:11;;;;;;;10.40;9.33;;;;;;;8.61;100.00;100622.97;5003104;28;20248;-73
2021/05/01 04:14:39;;;;;;;11.43;9.50;;;;;;;8.68;100.00;100623.53;5018688;28;20244;-73
2021/05/01 04:17:04;;;;;;;10.50;9.50;;;;;;;8.70;100.00;100618.66;5035370;28;20220;-73
2021/05/01 04:19:30;;;;;;;10.57;9.53;;;;;;;8.68;100.00;100628.94;5016015;28;20193;-75
2021/05/01 04:22:03;;;;;;;10.80;9.80;;;;;;;8.66;100.00;100617.56;5013687;28;20216;-74
2021/05/01 04:24:30;;;;;;;10.30;9.20;;;;;;;8.68;100.00;100616.25;5016379;28;20208;-74
2021/05/01 04:26:56;;;;;;;9.83;8.93;;;;;;;8.65;100.00;100608.63;5031126;28;20639;-73
2021/05/01 04:29:24;;;;;;;10.30;9.30;;;;;;;8.64;100.00;100608.88;5032562;28;20191;-72
2021/05/01 04:31:55;;;;;;;9.97;8.97;;;;;;;8.60;100.00;100614.00;5030380;28;20236;-72
2021/05/01 04:34:23;;;;;;;10.23;9.30;;;;;;;8.59;100.00;100617.81;5015570;28;20172;-73
2021/05/01 04:36:53;;;;;;;9.50;8.67;;;;;;;8.80;100.00;100614.13;5032222;28;20228;-73
2021/05/01 04:39:19;;;;;;;9.27;8.37;;;;;;;8.82;100.00;100616.59;5014522;28;20191;-72
2021/05/01 04:41:45;;;;;;;9.47;8.63;;;;;;;8.79;100.00;100612.53;5008749;28;20220;-75
2021/05/01 04:44:11;;;;;;;9.43;8.47;;;;;;;8.82;100.00;100618.19;5017290;28;20215;-74
2021/05/01 04:46:39;;;;;;;9.57;8.57;;;;;;;8.70;100.00;100613.25;5020652;28;20234;-74
2021/05/01 04:49:12;;;;;;;9.90;8.90;;;;;;;8.80;100.00;100613.31;5032175;28;20188;-72
2021/05/01 04:51:40;;;;;;;8.93;8.13;;;;;;;8.86;100.00;100616.63;5042449;28;20592;-73
2021/05/01 04:54:11;;;;;;;9.50;8.60;;;;;;;8.86;100.00;100613.91;5033894;28;20278;-74
2021/05/01 04:56:36;;;;;;;9.17;7.90;;;;;;;8.95;100.00;100616.94;5020799;28;20307;-73
2021/05/01 04:59:05;;;;;;;8.90;8.03;;;;;;;8.93;100.00;100611.78;4999006;28;20264;-72
2021/05/01 05:01:34;;;;;;;8.93;8.03;;;;;;;8.92;100.00;100623.69;5009454;28;20230;-74
2021/05/01 05:04:02;;;;;;;8.73;7.87;;;;;;;8.88;100.00;100622.59;4981445;28;20189;-74
2021/05/01 05:06:31;;;;;;;8.93;8.13;;;;;;;9.00;100.00;100623.19;5001753;28;20689;-74
2021/05/01 05:08:59;;;;;;;9.30;8.50;;;;;;;9.09;100.00;100618.09;5026058;28;20184;-74
2021/05/01 05:11:25;;;;;;;9.10;7.70;;;;;;;9.17;100.00;100621.09;5024320;28;20223;-73
2021/05/01 05:13:53;;;;;;;8.33;7.53;;;;;;;9.16;100.00;100624.06;5016621;28;20187;-73
2021/05/01 05:16:21;;;;;;;9.33;8.33;;;;;;;9.17;100.00;100618.41;4989543;28;20232;-73
2021/05/01 05:18:52;;;;;;;8.33;7.53;;;;;;;9.21;100.00;100627.63;5013138;28;20254;-73
2021/05/01 05:21:20;;;;;;;8.20;7.40;;;;;;;9.16;100.00;100624.06;5039030;28;20253;-73
2021/05/01 05:23:47;;;;;;;8.03;7.23;;;;;;;9.06;100.00;100635.69;5012935;28;20869;-73
2021/05/01 05:26:15;;;;;;;8.10;7.30;;;;;;;9.12;100.00;100623.81;5019582;28;20271;-73
2021/05/01 05:28:46;;;;;;;8.13;7.33;;;;;;;9.25;100.00;100628.75;4997394;28;20192;-73
2021/05/01 05:31:11;;;;;;;7.87;6.93;;;;;;;9.37;100.00;100632.03;5032139;28;20600;-71
2021/05/01 05:33:40;;;;;;;8.10;7.30;;;;;;;9.37;100.00;100638.28;5016986;28;20257;-73
2021/05/01 05:36:07;;;;;;;8.27;7.47;;;;;;;9.33;100.00;100633.66;5023235;28;20645;-73
2021/05/01 05:38:33;;;;;;;7.47;6.77;;;;;;;9.50;100.00;100642.41;5029771;28;20222;-73
2021/05/01 05:40:59;;;;;;;7.53;6.73;;;;;;;9.56;100.00;100644.03;5004699;28;20216;-72
2021/05/01 05:43:27;;;;;;;7.67;6.97;;;;;;;9.52;100.00;100637.53;5028972;28;20271;-74
2021/05/01 05:45:53;;;;;;;7.07;6.37;;;;;;;9.64;100.00;100639.72;5015953;28;20264;-73
2021/05/01 05:48:22;;;;;;;7.13;6.43;;;;;;;9.59;100.00;100638.91;5000346;28;20201;-72
2021/05/01 05:50:47;;;;;;;7.70;7.00;;;;;;;9.61;100.00;100640.28;5015945;28;20238;-73
2021/05/01 05:53:16;;;;;;;8.07;7.17;;;;;;;9.70;100.00;100633.22;5014697;28;20195;-75
2021/05/01 05:55:45;;;;;;;7.10;6.37;;;;;;;9.65;100.00;100644.09;5032509;28;20666;-75
2021/05/01 05:58:11;;;;;;;7.07;6.37;;;;;;;9.68;100.00;100640.81;5033112;28;20180;-73
2021/05/01 06:00:36;;;;;;;8.10;6.50;;;;;;;9.68;100.00;100643.53;5045391;28;20255;-72
2021/05/01 06:03:02;;;;;;;6.73;6.00;;;;;;;9.55;100.00;100642.41;5012294;28;20180;-72
2021/05/01 06:05:34;;;;;;;7.17;6.33;;;;;;;9.61;100.00;100645.72;5028572;28;20239;-73
2021/05/01 06:08:05;;;;;;;6.80;6.10;;;;;;;9.98;100.00;100640.13;5013303;28;20273;-73
2021/05/01 06:10:33;;;;;;;6.83;6.13;;;;;;;10.05;100.00;100644.19;5030739;28;20251;-74
2021/05/01 06:13:00;;;;;;;6.80;6.10;;;;;;;9.91;100.00;100634.97;5011961;28;20184;-73
2021/05/01 06:15:35;;;;;;;6.70;6.10;;;;;;;10.04;100.00;100645.31;4980234;28;20244;-74
2021/05/01 06:18:04;;;;;;;7.30;6.60;;;;;;;9.96;100.00;100637.66;5013774;28;20283;-74
2021/05/01 06:20:30;;;;;;;7.80;7.00;;;;;;;10.19;100.00;100642.59;5009087;28;20213;-74
2021/05/01 06:22:59;;;;;;;7.47;6.67;;;;;;;10.33;100.00;100641.81;5025107;28;20183;-73
2021/05/01 06:25:24;;;;;;;6.83;6.23;;;;;;;10.42;100.00;100638.28;5009813;28;20232;-74
2021/05/01 06:27:53;;;;;;;6.90;6.20;;;;;;;10.64;100.00;100633.38;5041820;28;20254;-73
2021/05/01 06:30:22;;;;;;;6.80;6.20;;;;;;;10.55;100.00;100637.72;5025887;28;20186;-74
2021/05/01 06:32:48;;;;;;;7.03;6.33;;;;;;;10.59;100.00;100641.53;5023352;28;20203;-74
2021/05/01 06:35:14;;;;;;;7.27;6.50;;;;;;;10.75;100.00;100633.09;5049825;28;20188;-73
2021/05/01 06:37:45;;;;;;;7.00;6.40;;;;;;;11.06;99.38;100639.28;5069164;28;20175;-73
2021/05/01 06:40:18;;;;;;;8.10;5.90;;;;;;;11.20;97.52;100633.78;5035380;28;21543;-73
2021/05/01 06:42:49;;;;;;;7.10;6.40;;;;;;;11.14;96.66;100645.78;4997320;28;20374;-73
2021/05/01 06:45:16;;;;;;;7.20;6.50;;;;;;;11.16;96.13;100634.63;4995885;28;20216;-74
2021/05/01 06:47:54;;;;;;;7.53;6.40;;;;;;;11.14;96.18;100643.06;5018169;28;20680;-73
2021/05/01 06:50:23;;;;;;;7.00;6.30;;;;;;;11.29;96.58;100645.72;5048168;28;20275;-72
2021/05/01 06:52:49;;;;;;;6.63;6.03;;;;;;;11.45;96.29;100638.38;5015064;28;20274;-73
2021/05/01 06:55:16;;;;;;;6.90;6.20;;;;;;;11.47;95.10;100641.63;5031651;28;20295;-74
2021/05/01 06:57:49;;;;;;;6.90;6.27;;;;;;;11.51;94.73;100643.50;5012393;28;20188;-74
2021/05/01 07:00:16;;;;;;;7.20;6.50;;;;;;;11.38;94.04;100633.19;5011796;28;20666;-73
2021/05/01 07:02:49;;;;;;;9.80;6.90;;;;;;;11.32;93.75;100634.31;5011719;28;20200;-73
2021/05/01 07:05:18;;;;;;;7.60;6.57;;;;;;;11.35;94.60;100635.66;5011296;28;20717;-73
2021/05/01 07:07:44;;;;;;;7.50;6.80;;;;;;;11.34;95.07;100632.13;5009308;28;20249;-75
2021/05/01 07:10:11;;;;;;;8.13;7.07;;;;;;;11.37;94.01;100644.34;4999539;28;20188;-72
2021/05/01 07:12:39;;;;;;;7.93;7.07;;;;;;;11.32;94.90;100653.34;5015500;28;20192;-73
2021/05/01 07:15:06;;;;;;;7.37;6.67;;;;;;;11.41;93.81;100640.81;5015462;28;20648;-73
2021/05/01 07:17:39;;;;;;;7.27;6.67;;;;;;;12.05;92.71;100639.66;5032981;28;20176;-73
2021/05/01 07:20:06;;;;;;;7.13;6.53;;;;;;;12.06;90.93;100636.66;5028774;28;20184;-74
2021/05/01 07:22:37;;;;;;;7.23;6.53;;;;;;;11.87;90.32;100634.06;5014788;28;20220;-71
2021/05/01 07:25:11;;;;;;;8.77;7.43;;;;;;;12.13;90.78;100625.47;5032395;28;20212;-72
2021/05/01 07:27:56;;;;;;;8.10;7.20;;;;;;;12.56;88.51;100631.63;5017447;28;20555;-74
2021/05/01 07:30:26;;;;;;;7.57;6.87;;;;;;;12.87;87.89;100627.56;5016460;28;20200;-75
2021/05/01 07:32:55;;;;;;;9.47;7.67;;;;;;;12.66;84.74;100630.75;5015753;28;20184;-72
2021/05/01 07:35:21;;;;;;;8.03;7.17;;;;;;;13.43;82.76;100632.16;5031429;28;20583;-74
2021/05/01 07:37:52;;;;;;;9.03;6.67;;;;;;;14.06;78.97;100630.47;5015262;28;20191;-74
2021/05/01 07:40:24;;;;;;;8.10;7.30;;;;;;;14.13;77.02;100625.47;4997061;28;20177;-74
2021/05/01 07:42:53;;;;;;;7.93;6.97;;;;;;;14.46;78.02;100633.41;5027812;28;20189;-74
2021/05/01 07:45:21;;;;;;;7.57;6.87;;;;;;;15.24;73.08;100627.66;5028268;28;20220;-73
2021/05/01 07:47:53;;;;;;;10.17;8.20;;;;;;;15.05;71.66;100618.69;5028791;28;20832;-75
2021/05/01 07:50:19;;;;;;;8.47;7.67;;;;;;;15.38;67.96;100625.72;5009367;28;20184;-74
2021/05/01 07:52:45;;;;;;;9.00;8.10;;;;;;;15.10;66.35;100624.03;5022183;28;20674;-74
2021/05/01 07:55:16;;;;;;;8.60;7.83;;;;;;;14.66;71.43;100617.47;4995170;28;20205;-73
2021/05/01 07:57:41;;;;;;;10.03;7.97;;;;;;;13.94;73.65;100616.44;4996819;28;20180;-72
2021/05/01 08:00:08;;;;;;;8.60;7.77;;;;;;;13.93;73.41;100622.19;5011967;28;20559;-72
2021/05/01 08:02:41;;;;;;;8.97;8.27;;;;;;;14.45;73.53;100614.56;5006774;28;20620;-74
2021/05/01 08:05:08;;;;;;;9.27;8.47;;;;;;;14.42;74.38;100610.50;5034316;28;20220;-73
2021/05/01 08:07:33;;;;;;;19.27;17.27;;;;;;;14.36;73.60;100611.72;5035082;28;20171;-73
2021/05/01 08:09:59;;;;;;;16.80;15.13;;;;;;;14.06;73.22;100605.09;5036443;28;20183;-75
2021/05/01 08:12:28;;;;;;;9.73;8.73;;;;;;;14.13;73.00;100605.53;5035104;28;20299;-74
2021/05/01 08:14:56;;;;;;;10.20;9.10;;;;;;;14.50;71.23;100609.81;5018829;28;20752;-73
2021/05/01 08:17:24;;;;;;;10.73;9.73;;;;;;;14.31;69.39;100603.59;5035545;28;20215;-73
2021/05/01 08:19:57;;;;;;;9.97;9.07;;;;;;;14.15;71.98;100597.84;5035757;28;20192;-74
2021/05/01 08:22:24;;;;;;;10.70;9.70;;;;;;;14.16;72.79;100599.47;5014378;28;20212;-75
2021/05/01 08:24:52;;;;;;;11.60;10.40;;;;;;;14.35;69.78;100593.66;5032572;28;20575;-74
2021/05/01 08:27:19;;;;;;;11.17;10.07;;;;;;;14.05;71.52;100593.34;5031557;28;20219;-73
2021/05/01 08:29:47;;;;;;;11.17;10.13;;;;;;;13.93;70.94;100589.41;5014287;28;20727;-74
2021/05/01 08:32:18;;;;;;;11.77;10.67;;;;;;;14.14;72.25;100585.28;5020570;28;20222;-74
2021/05/01 08:34:44;;;;;;;12.43;11.23;;;;;;;14.51;70.69;100581.38;5031903;28;20246;-73
2021/05/01 08:37:10;;;;;;;12.07;10.77;;;;;;;14.79;70.34;100583.88;5031502;28;20215;-73
2021/05/01 08:39:36;;;;;;;11.23;10.23;;;;;;;14.92;68.57;100582.28;5034648;28;20204;-74
2021/05/01 08:42:07;;;;;;;10.57;9.63;;;;;;;14.70;65.68;100579.41;5016868;28;20219;-75
2021/05/01 08:44:35;;;;;;;10.77;9.87;;;;;;;14.75;65.89;100576.59;5023061;28;20691;-73
2021/05/01 08:47:00;;;;;;;10.93;9.83;;;;;;;15.48;65.88;100573.50;5030596;28;20227;-73
2021/05/01 08:49:27;;;;;;;10.90;9.90;;;;;;;16.23;62.98;100573.44;5023163;28;20359;-73
2021/05/01 08:51:58;;;;;;;11.52;10.43;;;;;;;15.99;60.97;100561.91;5026944;28;20223;-74
2021/05/01 08:54:24;;;;;;;11.15;9.90;;;;;;;15.47;65.47;100567.19;4996997;28;20203;-74
2021/05/01 08:56:49;;;;;;;10.90;9.80;;;;;;;15.93;60.78;100576.03;5020048;28;20694;-73
2021/05/01 08:59:17;;;;;;;10.30;9.30;;;;;;;15.97;59.93;100575.13;5015152;28;20188;-72
2021/05/01 09:01:43;;;;;;;10.10;9.20;;;;;;;16.00;58.16;100573.69;5044880;28;20219;-74
2021/05/01 09:04:10;;;;;;;10.43;9.53;;;;;;;16.01;60.11;100575.31;5056088;28;20218;-73
2021/05/01 09:06:38;;;;;;;10.90;9.90;;;;;;;15.22;60.46;100577.03;5003967;28;20224;-73
2021/05/01 09:09:06;;;;;;;11.60;10.50;;;;;;;14.37;64.38;100579.72;5026273;28;20195;-73
2021/05/01 09:11:36;;;;;;;10.98;9.98;;;;;;;14.66;66.18;100589.31;5007797;28;20224;-73
2021/05/01 09:14:15;;;;;;;10.38;9.48;;;;;;;14.89;63.70;100591.06;5034125;28;20234;-74
2021/05/01 09:16:40;;;;;;;11.00;9.90;;;;;;;14.26;65.65;100590.00;5028261;28;20871;-73
2021/05/01 09:19:08;;;;;;;11.27;10.07;;;;;;;13.49;71.66;100585.38;5010512;28;20315;-74
2021/05/01 09:21:34;;;;;;;13.20;12.00;;;;;;;12.70;87.88;100599.91;5030228;28;20724;-72
2021/05/01 09:24:00;;;;;;;12.83;11.70;;;;;;;12.47;93.59;100605.28;5014281;28;20196;-73
2021/05/01 09:26:37;;;;;;;13.80;12.40;;;;;;;12.16;100.00;100608.53;4988178;28;20239;-71
2021/05/01 09:29:07;;;;;;;14.53;13.07;;;;;;;11.86;100.00;100614.19;5014651;28;20180;-72
2021/05/01 09:31:40;;;;;;;14.90;13.40;;;;;;;11.63;100.00;100617.59;5029695;28;20220;-72
2021/05/01 09:34:11;;;;;;;14.83;13.37;;;;;;;11.54;100.00;100615.75;5039922;28;20223;-73
2021/05/01 09:36:36;;;;;;;15.13;13.63;;;;;;;11.52;100.00;100617.94;5032889;28;20228;-71
2021/05/01 09:39:08;;;;;;;16.20;13.97;;;;;;;11.82;100.00;100615.88;4997932;28;20259;-72
2021/05/01 09:41:38;;;;;;;15.30;13.80;;;;;;;12.12;100.00;100616.47;5037502;28;20306;-72
2021/05/01 09:44:14;;;;;;;11.37;10.20;;;;;;;12.53;100.00;100599.53;4997214;28;20837;-72
2021/05/01 09:46:43;;;;;;;14.17;12.87;;;;;;;12.83;100.00;100597.34;5027983;28;20576;-72
2021/05/01 09:49:10;;;;;;;12.70;11.50;;;;;;;12.50;100.00;100583.75;5013977;28;20208;-73
2021/05/01 09:52:00;;;;;;;12.73;11.43;;;;;;;12.68;99.43;100571.34;5029183;28;20223;-73
2021/05/01 09:54:48;;;;;;;14.37;12.70;;;;;;;13.20;100.00;100570.22;5014031;28;20196;-73
2021/05/01 09:57:20;;;;;;;13.83;12.47;;;;;;;13.50;94.99;100563.28;4998081;28;20216;-73
2021/05/01 09:59:55;;;;;;;13.10;11.90;;;;;;;13.95;93.01;100562.59;5014831;28;20188;-73
2021/05/01 10:02:38;;;;;;;12.73;11.53;;;;;;;13.04;91.36;100563.34;5009695;28;20298;-73
2021/05/01 10:05:06;;;;;;;12.77;11.47;;;;;;;13.64;86.49;100566.88;5033840;28;20215;-73
2021/05/01 10:07:36;;;;;;;10.97;9.97;;;;;;;14.02;78.15;100571.28;5025069;28;20670;-73
2021/05/01 10:10:06;;;;;;;11.47;10.37;;;;;;;13.51;80.08;100559.41;5034143;28;20184;-74
2021/05/01 10:12:43;;;;;;;10.23;9.23;;;;;;;14.00;75.28;100568.81;5016316;28;20852;-74
2021/05/01 10:15:23;;;;;;;13.87;12.37;;;;;;;14.59;73.76;100567.03;5033204;28;20312;-73
2021/05/01 10:17:48;;;;;;;10.67;9.63;;;;;;;15.13;66.91;100563.28;5016805;28;20187;-73
2021/05/01 10:20:17;;;;;;;17.10;14.03;;;;;;;15.87;66.38;100553.41;5016560;28;20302;-73
2021/05/01 10:22:45;;;;;;;10.97;9.97;;;;;;;16.22;68.74;100558.09;5050582;28;20199;-73
2021/05/01 10:25:20;;;;;;;11.03;10.03;;;;;;;16.00;64.34;100566.25;5015636;28;20849;-73
2021/05/01 10:27:55;;;;;;;11.23;10.13;;;;;;;15.63;66.55;100549.31;5001155;28;20559;-73
2021/05/01 10:30:29;;;;;;;12.37;11.27;;;;;;;15.70;65.91;100546.19;4981261;28;20199;-73
2021/05/01 10:33:09;;;;;;;11.83;10.63;;;;;;;15.47;71.91;100558.97;4998343;28;20179;-73
2021/05/01 10:35:38;;;;;;;12.30;11.20;;;;;;;15.24;69.74;100556.50;5030271;28;20723;-72
2021/05/01 10:38:07;;;;;;;11.60;10.60;;;;;;;15.36;66.01;100550.50;5013612;28;20184;-73
2021/05/01 10:40:46;;;;;;;10.77;9.77;;;;;;;15.56;68.51;100540.72;5012554;28;20226;-73
2021/05/01 10:43:18;;;;;;;11.23;10.23;;;;;;;15.48;68.56;100546.13;5011723;28;20225;-74
2021/05/01 10:46:05;;;;;;;12.60;11.33;;;;;;;15.62;70.54;100552.38;5006832;28;20241;-74
2021/05/01 10:48:31;;;;;;;11.70;10.60;;;;;;;15.48;72.01;100543.38;5010246;28;20184;-74
2021/05/01 10:51:03;;;;;;;11.13;10.03;;;;;;;15.53;72.73;100546.81;5000254;28;20223;-74
2021/05/01 10:53:28;;;;;;;12.20;11.10;;;;;;;15.56;72.23;100546.19;5035532;28;20818;-73
2021/05/01 10:55:54;;;;;;;11.50;10.43;;;;;;;15.09;72.63;100554.03;5008718;28;20311;-73
2021/05/01 10:58:32;;;;;;;11.77;10.60;;;;;;;14.98;75.19;100562.75;5033528;28;20184;-73
2021/05/01 11:00:57;;;;;;;12.30;11.10;;;;;;;15.21;74.74;100548.06;5023647;28;20281;-73
2021/05/01 11:03:23;;;;;;;12.07;10.97;;;;;;;15.36;70.90;100554.03;5003257;28;20188;-75
2021/05/01 11:05:49;;;;;;;12.13;11.03;;;;;;;15.32;68.52;100555.75;4999352;28;20244;-73
2021/05/01 11:08:31;;;;;;;12.10;11.00;;;;;;;15.97;67.62;100552.38;5028703;28;20289;-73
2021/05/01 11:10:57;;;;;;;12.00;10.83;;;;;;;16.18;65.26;100554.34;4996158;28;20755;-72
2021/05/01 11:13:29;;;;;;;10.75;9.75;;;;;;;16.05;64.32;100560.66;5050187;28;20184;-74
2021/05/01 11:15:59;;;;;;;12.50;11.30;;;;;;;15.66;65.68;100553.38;5034638;28;20224;-73
2021/05/01 11:18:26;;;;;;;12.25;11.05;;;;;;;15.79;65.50;100545.94;5027208;28;20208;-74
2021/05/01 11:20:54;;;;;;;12.93;11.73;;;;;;;15.67;73.67;100541.31;5012619;28;20219;-73
2021/05/01 11:23:23;;;;;;;12.43;11.30;;;;;;;15.50;69.70;100544.69;5008824;28;20246;-73